»·PEaware :: ACA550 CYVR-KLAX

ACA550 :: CYVR-KLAX

FLIGHT INFORMATION

Flight Status: Arrived
Operator:
Air Canada
More flights by this operator :: More flights under this callsign
Pilot: Konrad W. (32064)
Aircraft: AIRBUS A320
(A320)
More flights by this aircraft type
Origin: CYVR Vancouver Intl
Canada
Destination: KLAX Los Angeles Intl
United States
More flights between these airports :: More routes between these airports
Route: YVR1 YVR J5 FMG REBRG IRNMN2
File this flight plan on PilotEdge
Remarks:
Altitude:
(Current/Filed)
37,000ft
Speed:
(Current/Filed)
440kts
Departed: 07-Dec-20 03:37 PM
Arrived: 07-Dec-20 06:33 PM
Distance/Time
Traveled:
940nm/2:56
Distance/Time
To Go:
Arrived

Flight Plot

Page will automatically refresh every two minutes.

Flight plan parsing failed; only flown route is shown


Map Options




Map Legend


Flown Route
Filed Route
Departure Airport
Arrival Airport
Navaid (VOR, NDB)
Fix

Horizontal Profiles

Position Reports

Time Latitude Longitude Heading Altitude Ground
Speed
07-Dec-20 15:18 49.195349 -123.181141 175 22ft 0kts
07-Dec-20 15:19 49.195349 -123.181141 175 22ft 0kts
07-Dec-20 15:19 49.195349 -123.181141 175 22ft 0kts
07-Dec-20 15:21 49.195349 -123.181141 175 22ft 0kts
07-Dec-20 15:21 49.195349 -123.181141 175 22ft 0kts
07-Dec-20 15:22 49.195349 -123.181141 175 22ft 0kts
07-Dec-20 15:23 49.195349 -123.181141 175 22ft 0kts
07-Dec-20 15:24 49.195349 -123.181141 175 22ft 0kts
07-Dec-20 15:26 49.195349 -123.181141 175 22ft 0kts
07-Dec-20 15:26 49.195777 -123.180853 243 22ft 2kts
07-Dec-20 15:27 49.195831 -123.180688 243 22ft 0kts
07-Dec-20 15:28 49.195831 -123.180688 243 22ft 0kts
07-Dec-20 15:29 49.196739 -123.182492 288 22ft 22kts
07-Dec-20 15:30 49.193647 -123.189398 259 22ft 28kts
07-Dec-20 15:31 49.191625 -123.204098 207 23ft 13kts
07-Dec-20 15:32 49.190859 -123.204356 190 23ft 0kts
07-Dec-20 15:33 49.190859 -123.204356 190 23ft 0kts
07-Dec-20 15:34 49.190859 -123.204356 190 23ft 0kts
07-Dec-20 15:35 49.189716 -123.204126 124 23ft 17kts
07-Dec-20 15:36 49.186071 -123.171492 95 334ft 186kts
07-Dec-20 15:37 49.174239 -123.076239 101 3093ft 228kts
07-Dec-20 15:38 49.137266 -123.012118 187 5869ft 223kts
07-Dec-20 15:39 49.083340 -123.048299 206 8604ft 217kts
07-Dec-20 15:40 49.025450 -123.006050 142 11259ft 278kts
07-Dec-20 15:41 48.969058 -122.924988 152 13984ft 283kts
07-Dec-20 15:42 48.905861 -122.850133 152 16457ft 298kts
07-Dec-20 15:43 48.839149 -122.770947 153 17918ft 313kts
07-Dec-20 15:45 48.697334 -122.686818 195 18000ft 266kts
07-Dec-20 15:48 48.469725 -122.650520 177 18121ft 284kts
07-Dec-20 15:49 48.392292 -122.624512 178 18258ft 287kts
07-Dec-20 15:59 49.195714 -123.186078 99 22ft 0kts
07-Dec-20 16:00 49.195714 -123.186078 99 22ft 0kts
07-Dec-20 16:01 49.195714 -123.186078 99 22ft 0kts
07-Dec-20 16:02 49.195714 -123.186078 99 22ft 0kts
07-Dec-20 16:03 49.195714 -123.186078 99 22ft 0kts
07-Dec-20 16:04 49.195714 -123.186078 99 22ft 0kts
07-Dec-20 16:05 49.196019 -123.186750 185 22ft 0kts
07-Dec-20 16:06 49.196019 -123.186750 185 22ft 0kts
07-Dec-20 16:07 49.193721 -123.188881 259 22ft 22kts
07-Dec-20 16:08 49.192051 -123.202391 259 22ft 33kts
07-Dec-20 16:09 49.188989 -123.198275 99 22ft 92kts
07-Dec-20 16:10 49.166376 -123.127651 152 1479ft 224kts
07-Dec-20 16:11 49.105871 -123.136779 197 3807ft 222kts
07-Dec-20 16:12 49.045145 -123.132733 165 6387ft 242kts
07-Dec-20 16:13 48.982232 -123.098492 170 8991ft 246kts
07-Dec-20 16:14 48.914695 -123.063469 171 11591ft 270kts
07-Dec-20 16:15 48.842142 -123.025263 171 14271ft 282kts
07-Dec-20 16:16 48.766860 -122.985989 171 16878ft 292kts
07-Dec-20 16:17 48.688282 -122.945083 171 18950ft 316kts
07-Dec-20 16:18 48.603897 -122.902691 175 20507ft 321kts
07-Dec-20 16:19 48.516280 -122.867692 174 21991ft 334kts
07-Dec-20 16:20 48.425589 -122.829488 174 23468ft 349kts
07-Dec-20 16:21 48.328629 -122.788996 174 24965ft 376kts
07-Dec-20 16:22 48.227799 -122.747012 174 26458ft 379kts
07-Dec-20 16:23 48.124738 -122.704349 173 27956ft 391kts
07-Dec-20 16:24 48.019477 -122.660911 173 29442ft 398kts
07-Dec-20 16:25 47.911742 -122.616640 173 30935ft 405kts
07-Dec-20 16:26 47.803471 -122.572357 173 32419ft 406kts
07-Dec-20 16:27 47.696343 -122.552673 206 33758ft 371kts
07-Dec-20 16:28 47.590401 -122.532177 158 34715ft 428kts
07-Dec-20 16:29 47.484125 -122.453750 165 35676ft 429kts
07-Dec-20 16:30 47.372484 -122.397660 172 36614ft 425kts
07-Dec-20 16:31 47.258430 -122.352391 171 37289ft 436kts
07-Dec-20 16:32 47.143032 -122.306289 171 37318ft 427kts
07-Dec-20 16:33 47.028693 -122.260936 171 37318ft 428kts
07-Dec-20 16:34 46.914323 -122.215779 171 37332ft 427kts
07-Dec-20 16:35 46.800187 -122.170880 170 37398ft 428kts
07-Dec-20 16:36 46.683482 -122.125210 170 37444ft 450kts
07-Dec-20 16:37 46.563581 -122.078475 170 37422ft 445kts
07-Dec-20 16:38 46.443511 -122.031849 170 37449ft 448kts
07-Dec-20 16:39 46.323328 -121.985430 169 37450ft 450kts
07-Dec-20 16:40 46.202873 -121.939191 169 37496ft 451kts
07-Dec-20 16:41 46.081884 -121.892845 169 37532ft 453kts
07-Dec-20 16:42 45.960905 -121.846743 169 37535ft 452kts
07-Dec-20 16:43 45.839411 -121.800666 168 37551ft 454kts
07-Dec-20 16:44 45.717807 -121.754763 168 37546ft 454kts
07-Dec-20 16:45 45.595885 -121.708951 168 37539ft 455kts
07-Dec-20 16:46 45.473692 -121.663232 168 37549ft 456kts
07-Dec-20 16:47 45.350849 -121.617456 167 37546ft 457kts
07-Dec-20 16:48 45.227770 -121.571819 167 37557ft 460kts
07-Dec-20 16:49 45.104299 -121.526265 167 37565ft 460kts
07-Dec-20 16:50 44.980277 -121.480674 167 37575ft 463kts
07-Dec-20 16:51 44.856399 -121.435349 166 37580ft 463kts
07-Dec-20 16:52 44.731968 -121.390035 166 37586ft 464kts
07-Dec-20 16:53 44.607415 -121.344876 166 37590ft 465kts
07-Dec-20 16:54 44.482397 -121.299744 166 37587ft 465kts
07-Dec-20 16:55 44.357408 -121.254809 165 37497ft 468kts
07-Dec-20 16:56 44.232470 -121.210109 165 37441ft 466kts
07-Dec-20 16:57 44.107235 -121.165491 165 37451ft 467kts
07-Dec-20 16:58 43.982088 -121.121099 165 37460ft 470kts
07-Dec-20 16:59 43.855749 -121.076476 165 37587ft 472kts
07-Dec-20 17:00 43.728908 -121.031882 164 37616ft 472kts
07-Dec-20 17:01 43.601541 -120.987292 164 37614ft 474kts
07-Dec-20 17:02 43.473846 -120.942783 164 37621ft 475kts
07-Dec-20 17:04 43.346127 -120.898466 164 37627ft 476kts
07-Dec-20 17:05 43.217447 -120.854002 164 37631ft 477kts
07-Dec-20 17:06 43.089319 -120.809925 163 37634ft 479kts
07-Dec-20 17:07 42.960134 -120.765676 163 37628ft 479kts
07-Dec-20 17:08 42.830383 -120.721421 163 37626ft 482kts
07-Dec-20 17:09 42.700672 -120.677373 163 37639ft 483kts
07-Dec-20 17:10 42.570585 -120.633378 163 37619ft 483kts
07-Dec-20 17:11 42.439854 -120.589384 163 37634ft 486kts
07-Dec-20 17:12 42.309464 -120.545671 162 37518ft 484kts
07-Dec-20 17:13 42.178502 -120.501953 162 37519ft 488kts
07-Dec-20 17:14 42.047344 -120.458360 162 37517ft 487kts
07-Dec-20 17:15 41.915994 -120.414888 162 37518ft 488kts
07-Dec-20 17:16 41.784196 -120.371445 162 37518ft 489kts
07-Dec-20 17:17 41.652717 -120.328322 161 37509ft 488kts
07-Dec-20 17:18 41.521120 -120.285284 161 37506ft 489kts
07-Dec-20 17:19 41.388848 -120.242272 161 37512ft 493kts
07-Dec-20 17:20 41.256847 -120.199482 160 37537ft 491kts
07-Dec-20 17:21 41.123514 -120.156485 160 37612ft 494kts
07-Dec-20 17:22 40.991080 -120.113886 160 37599ft 494kts
07-Dec-20 17:22 40.879762 -120.078259 160 37592ft 493kts
07-Dec-20 17:24 40.725259 -120.028995 159 37576ft 494kts
07-Dec-20 17:24 40.614874 -119.993962 159 37514ft 489kts
07-Dec-20 17:26 40.460434 -119.945135 159 37563ft 492kts
07-Dec-20 17:26 40.349774 -119.910242 159 37537ft 494kts
07-Dec-20 17:28 40.194430 -119.861542 158 37580ft 493kts
07-Dec-20 17:28 40.083027 -119.826745 158 37592ft 495kts
07-Dec-20 17:29 39.950450 -119.785462 158 37535ft 495kts
07-Dec-20 17:30 39.815785 -119.743759 158 37581ft 498kts
07-Dec-20 17:31 39.682161 -119.702453 157 37555ft 504kts
07-Dec-20 17:32 39.542124 -119.659394 158 37517ft 534kts
07-Dec-20 17:33 39.400063 -119.615615 172 37521ft 542kts
07-Dec-20 17:34 39.249937 -119.619780 170 37531ft 543kts
07-Dec-20 17:35 39.099391 -119.616958 174 37531ft 542kts
07-Dec-20 17:36 38.948148 -119.616831 174 37519ft 545kts
07-Dec-20 17:37 38.797297 -119.616736 174 37513ft 545kts
07-Dec-20 17:38 38.646473 -119.617433 174 37476ft 540kts
07-Dec-20 17:39 38.496861 -119.631957 201 37458ft 553kts
07-Dec-20 17:40 38.362223 -119.721025 187 37440ft 547kts
07-Dec-20 17:41 38.211820 -119.728886 161 37438ft 533kts
07-Dec-20 17:42 38.078654 -119.662099 154 37394ft 521kts
07-Dec-20 17:43 37.935743 -119.627896 168 37375ft 530kts
07-Dec-20 17:44 37.786639 -119.625189 175 37389ft 538kts
07-Dec-20 17:45 37.638646 -119.624355 175 37361ft 534kts
07-Dec-20 17:46 37.490532 -119.623376 176 37309ft 536kts
07-Dec-20 17:47 37.343445 -119.622484 177 37278ft 530kts
07-Dec-20 17:48 37.196274 -119.621718 177 37251ft 528kts
07-Dec-20 17:49 37.049484 -119.620788 178 37195ft 527kts
07-Dec-20 17:50 36.902985 -119.619936 178 37255ft 531kts
07-Dec-20 17:51 36.755722 -119.619110 178 37259ft 531kts
07-Dec-20 17:52 36.608107 -119.618272 178 37259ft 532kts
07-Dec-20 17:53 36.461264 -119.617437 178 37161ft 531kts
07-Dec-20 17:54 36.313652 -119.616600 179 37239ft 531kts
07-Dec-20 17:55 36.166386 -119.615764 179 37267ft 531kts
07-Dec-20 17:56 36.019634 -119.614939 179 37180ft 531kts
07-Dec-20 17:57 35.877827 -119.649794 203 37144ft 525kts
07-Dec-20 17:58 35.738776 -119.705742 199 37097ft 527kts
07-Dec-20 17:59 35.596847 -119.749770 192 35698ft 526kts
07-Dec-20 18:00 35.454274 -119.784215 196 34124ft 521kts
07-Dec-20 18:01 35.315296 -119.817499 190 32468ft 510kts
07-Dec-20 18:02 35.181774 -119.774000 137 30748ft 502kts
07-Dec-20 18:03 35.088005 -119.653601 127 29062ft 489kts
07-Dec-20 18:04 34.990971 -119.546183 140 27392ft 448kts
07-Dec-20 18:05 34.891612 -119.454772 142 26160ft 441kts
07-Dec-20 18:06 34.796121 -119.369671 143 24686ft 414kts
07-Dec-20 18:07 34.705786 -119.289790 145 23128ft 389kts
07-Dec-20 18:08 34.624020 -119.218625 146 21329ft 341kts
07-Dec-20 18:09 34.548440 -119.153484 145 19533ft 327kts
07-Dec-20 18:10 34.476713 -119.089689 145 17565ft 313kts
07-Dec-20 18:11 34.407928 -119.029439 145 15703ft 293kts
07-Dec-20 18:12 34.343441 -118.973937 144 13997ft 279kts
07-Dec-20 18:13 34.282895 -118.918663 143 12368ft 268kts
07-Dec-20 18:14 34.223792 -118.864711 142 12017ft 268kts
07-Dec-20 18:15 34.164711 -118.810109 140 11999ft 269kts
07-Dec-20 18:16 34.111730 -118.752720 138 10779ft 252kts
07-Dec-20 18:17 34.060077 -118.696650 137 9247ft 246kts
07-Dec-20 18:18 34.026124 -118.627935 101 8306ft 224kts
07-Dec-20 18:19 34.019729 -118.556232 98 7968ft 217kts
07-Dec-20 18:20 34.012775 -118.484955 97 6716ft 215kts
07-Dec-20 18:21 34.012945 -118.413900 83 5046ft 215kts
07-Dec-20 18:22 34.019785 -118.343244 82 3333ft 212kts
07-Dec-20 18:23 34.026344 -118.275634 82 3010ft 205kts
07-Dec-20 18:24 34.032934 -118.208479 82 2998ft 195kts
07-Dec-20 18:25 34.036333 -118.144314 110 2979ft 195kts
07-Dec-20 18:26 33.995715 -118.121561 180 2539ft 197kts
07-Dec-20 18:27 33.959747 -118.156173 254 2495ft 198kts
07-Dec-20 18:28 33.954369 -118.216036 266 2499ft 178kts
07-Dec-20 18:29 33.948797 -118.272323 263 1921ft 166kts
07-Dec-20 18:30 33.943231 -118.326082 263 1045ft 169kts
07-Dec-20 18:31 33.937850 -118.378268 263 216ft 148kts
07-Dec-20 18:32 33.936194 -118.403497 293 125ft 0kts
07-Dec-20 18:33 33.936027 -118.408276 289 125ft 0kts
07-Dec-20 18:34 33.936027 -118.408276 289 125ft 0kts
07-Dec-20 18:35 33.938549 -118.407347 20 125ft 10kts
07-Dec-20 18:36 33.939140 -118.404626 82 125ft 14kts
07-Dec-20 18:37 33.939909 -118.402468 36 125ft 1kts
07-Dec-20 18:38 33.939978 -118.402405 37 125ft 0kts

Navigation Log

Ident Type
Flight plan parsing failed, navigation log unavailable